sensor_id;sensor_type;location;lat;lon;timestamp;temperature;humidity
46508;DHT22;32223;53.654;10.014;2023-04-24T00:01:13;12.00;99.90
46508;DHT22;32223;53.654;10.014;2023-04-24T00:03:40;12.00;99.90
46508;DHT22;32223;53.654;10.014;2023-04-24T00:06:06;12.00;99.90
46508;DHT22;32223;53.654;10.014;2023-04-24T00:08:34;12.00;99.90
46508;DHT22;32223;53.654;10.014;2023-04-24T00:11:01;12.00;99.90
46508;DHT22;32223;53.654;10.014;2023-04-24T00:13:27;12.00;99.90
46508;DHT22;32223;53.654;10.014;2023-04-24T00:15:56;11.90;99.90
46508;DHT22;32223;53.654;10.014;2023-04-24T00:18:22;11.90;99.90
46508;DHT22;32223;53.654;10.014;2023-04-24T00:20:47;11.90;99.90
46508;DHT22;32223;53.654;10.014;2023-04-24T00:23:13;11.90;99.90
46508;DHT22;32223;53.654;10.014;2023-04-24T00:25:39;11.90;99.90
46508;DHT22;32223;53.654;10.014;2023-04-24T00:28:05;11.80;99.90
46508;DHT22;32223;53.654;10.014;2023-04-24T00:30:31;11.80;99.90
46508;DHT22;32223;53.654;10.014;2023-04-24T00:32:57;11.80;99.90
46508;DHT22;32223;53.654;10.014;2023-04-24T00:35:23;11.80;99.90
46508;DHT22;32223;53.654;10.014;2023-04-24T00:37:48;11.80;99.90
46508;DHT22;32223;53.654;10.014;2023-04-24T00:40:15;11.80;99.90
46508;DHT22;32223;53.654;10.014;2023-04-24T00:42:41;11.70;99.90
46508;DHT22;32223;53.654;10.014;2023-04-24T00:45:07;11.60;99.90
46508;DHT22;32223;53.654;10.014;2023-04-24T00:47:33;11.60;99.90
46508;DHT22;32223;53.654;10.014;2023-04-24T00:50:02;11.60;99.90
46508;DHT22;32223;53.654;10.014;2023-04-24T00:52:28;11.60;99.90
46508;DHT22;32223;53.654;10.014;2023-04-24T00:54:56;11.60;99.90
46508;DHT22;32223;53.654;10.014;2023-04-24T00:57:22;11.60;99.90
46508;DHT22;32223;53.654;10.014;2023-04-24T00:59:49;11.60;99.90
46508;DHT22;32223;53.654;10.014;2023-04-24T01:02:15;11.60;99.90
46508;DHT22;32223;53.654;10.014;2023-04-24T01:04:41;11.60;99.90
46508;DHT22;32223;53.654;10.014;2023-04-24T01:07:07;11.60;99.90
46508;DHT22;32223;53.654;10.014;2023-04-24T01:09:42;11.50;99.90
46508;DHT22;32223;53.654;10.014;2023-04-24T01:12:09;11.50;99.90
46508;DHT22;32223;53.654;10.014;2023-04-24T01:14:35;11.50;99.90
46508;DHT22;32223;53.654;10.014;2023-04-24T01:17:01;11.40;99.90
46508;DHT22;32223;53.654;10.014;2023-04-24T01:19:27;11.40;99.90
46508;DHT22;32223;53.654;10.014;2023-04-24T01:21:54;11.40;99.90
46508;DHT22;32223;53.654;10.014;2023-04-24T01:24:22;11.30;99.90
46508;DHT22;32223;53.654;10.014;2023-04-24T01:26:48;11.30;99.90
46508;DHT22;32223;53.654;10.014;2023-04-24T01:29:13;11.30;99.90
46508;DHT22;32223;53.654;10.014;2023-04-24T01:31:40;11.30;99.90
46508;DHT22;32223;53.654;10.014;2023-04-24T01:34:06;11.30;99.90
46508;DHT22;32223;53.654;10.014;2023-04-24T01:36:32;11.30;99.90
46508;DHT22;32223;53.654;10.014;2023-04-24T01:38:58;11.30;99.90
46508;DHT22;32223;53.654;10.014;2023-04-24T01:41:24;11.20;99.90
46508;DHT22;32223;53.654;10.014;2023-04-24T01:43:50;11.30;99.90
46508;DHT22;32223;53.654;10.014;2023-04-24T01:46:16;11.30;99.90
46508;DHT22;32223;53.654;10.014;2023-04-24T01:48:42;11.30;99.90
46508;DHT22;32223;53.654;10.014;2023-04-24T01:51:08;11.30;99.90
46508;DHT22;32223;53.654;10.014;2023-04-24T01:53:33;11.30;99.90
46508;DHT22;32223;53.654;10.014;2023-04-24T01:55:59;11.30;99.90
46508;DHT22;32223;53.654;10.014;2023-04-24T01:58:26;11.30;99.90
46508;DHT22;32223;53.654;10.014;2023-04-24T02:00:52;11.30;99.90
46508;DHT22;32223;53.654;10.014;2023-04-24T02:03:18;11.30;99.90
46508;DHT22;32223;53.654;10.014;2023-04-24T02:05:44;11.30;99.90
46508;DHT22;32223;53.654;10.014;2023-04-24T02:08:10;11.30;99.90
46508;DHT22;32223;53.654;10.014;2023-04-24T02:10:36;11.30;99.90
46508;DHT22;32223;53.654;10.014;2023-04-24T02:13:01;11.30;99.90
46508;DHT22;32223;53.654;10.014;2023-04-24T02:15:27;11.30;99.90
46508;DHT22;32223;53.654;10.014;2023-04-24T02:17:53;11.20;99.90
46508;DHT22;32223;53.654;10.014;2023-04-24T02:20:19;11.20;99.90
46508;DHT22;32223;53.654;10.014;2023-04-24T02:22:44;11.20;99.90
46508;DHT22;32223;53.654;10.014;2023-04-24T02:25:10;11.10;99.90
46508;DHT22;32223;53.654;10.014;2023-04-24T02:27:36;11.10;99.90
46508;DHT22;32223;53.654;10.014;2023-04-24T02:30:01;11.10;99.90
46508;DHT22;32223;53.654;10.014;2023-04-24T02:32:28;11.10;99.90
46508;DHT22;32223;53.654;10.014;2023-04-24T02:34:53;11.10;99.90
46508;DHT22;32223;53.654;10.014;2023-04-24T02:37:19;11.10;99.90
46508;DHT22;32223;53.654;10.014;2023-04-24T02:39:45;11.10;99.90
46508;DHT22;32223;53.654;10.014;2023-04-24T02:42:10;11.00;99.90
46508;DHT22;32223;53.654;10.014;2023-04-24T02:44:36;11.00;99.90
46508;DHT22;32223;53.654;10.014;2023-04-24T02:47:01;10.90;99.90
46508;DHT22;32223;53.654;10.014;2023-04-24T02:49:27;10.90;99.90
46508;DHT22;32223;53.654;10.014;2023-04-24T02:51:52;10.90;99.90
46508;DHT22;32223;53.654;10.014;2023-04-24T02:54:18;10.80;99.90
46508;DHT22;32223;53.654;10.014;2023-04-24T02:56:44;10.80;99.90
46508;DHT22;32223;53.654;10.014;2023-04-24T02:59:09;10.80;99.90
46508;DHT22;32223;53.654;10.014;2023-04-24T03:01:35;10.70;99.90
46508;DHT22;32223;53.654;10.014;2023-04-24T03:04:01;10.70;99.90
46508;DHT22;32223;53.654;10.014;2023-04-24T03:06:27;10.70;99.90
46508;DHT22;32223;53.654;10.014;2023-04-24T03:08:53;10.60;99.90
46508;DHT22;32223;53.654;10.014;2023-04-24T03:11:19;10.60;99.90
46508;DHT22;32223;53.654;10.014;2023-04-24T03:13:45;10.50;99.90
46508;DHT22;32223;53.654;10.014;2023-04-24T03:16:11;10.50;99.90
46508;DHT22;32223;53.654;10.014;2023-04-24T03:18:36;10.50;99.90
46508;DHT22;32223;53.654;10.014;2023-04-24T03:21:02;10.50;99.90
46508;DHT22;32223;53.654;10.014;2023-04-24T03:23:28;10.60;99.90
46508;DHT22;32223;53.654;10.014;2023-04-24T03:25:54;10.50;99.90
46508;DHT22;32223;53.654;10.014;2023-04-24T03:28:20;10.50;99.90
46508;DHT22;32223;53.654;10.014;2023-04-24T03:30:46;10.50;99.90
46508;DHT22;32223;53.654;10.014;2023-04-24T03:33:11;10.40;99.90
46508;DHT22;32223;53.654;10.014;2023-04-24T03:35:37;10.40;99.90
46508;DHT22;32223;53.654;10.014;2023-04-24T03:38:03;10.30;99.90
46508;DHT22;32223;53.654;10.014;2023-04-24T03:40:30;10.30;99.90
46508;DHT22;32223;53.654;10.014;2023-04-24T03:42:55;10.30;99.90
46508;DHT22;32223;53.654;10.014;2023-04-24T03:45:21;10.30;99.90
46508;DHT22;32223;53.654;10.014;2023-04-24T03:47:47;10.20;99.90
46508;DHT22;32223;53.654;10.014;2023-04-24T03:50:12;10.20;99.90
46508;DHT22;32223;53.654;10.014;2023-04-24T03:52:38;10.20;99.90
46508;DHT22;32223;53.654;10.014;2023-04-24T03:55:04;10.30;99.90
46508;DHT22;32223;53.654;10.014;2023-04-24T03:57:29;10.20;99.90
46508;DHT22;32223;53.654;10.014;2023-04-24T03:59:55;10.20;99.90
46508;DHT22;32223;53.654;10.014;2023-04-24T04:02:21;10.10;99.90
46508;DHT22;32223;53.654;10.014;2023-04-24T04:04:46;10.10;99.90
46508;DHT22;32223;53.654;10.014;2023-04-24T04:07:12;10.20;99.90
46508;DHT22;32223;53.654;10.014;2023-04-24T04:09:38;10.10;99.90
46508;DHT22;32223;53.654;10.014;2023-04-24T04:12:03;10.10;99.90
46508;DHT22;32223;53.654;10.014;2023-04-24T04:14:29;10.10;99.90
46508;DHT22;32223;53.654;10.014;2023-04-24T04:16:55;10.20;99.90
46508;DHT22;32223;53.654;10.014;2023-04-24T04:19:20;10.20;99.90
46508;DHT22;32223;53.654;10.014;2023-04-24T04:21:46;10.10;99.90
46508;DHT22;32223;53.654;10.014;2023-04-24T04:24:16;10.10;99.90
46508;DHT22;32223;53.654;10.014;2023-04-24T04:26:41;10.10;99.90
46508;DHT22;32223;53.654;10.014;2023-04-24T04:29:13;10.10;99.90
46508;DHT22;32223;53.654;10.014;2023-04-24T04:31:38;10.10;99.90
46508;DHT22;32223;53.654;10.014;2023-04-24T04:34:04;10.10;99.90
46508;DHT22;32223;53.654;10.014;2023-04-24T04:36:29;10.10;99.90
46508;DHT22;32223;53.654;10.014;2023-04-24T04:38:55;10.20;99.90
46508;DHT22;32223;53.654;10.014;2023-04-24T04:41:22;10.10;99.90
46508;DHT22;32223;53.654;10.014;2023-04-24T04:43:47;10.20;99.90
46508;DHT22;32223;53.654;10.014;2023-04-24T04:46:13;10.10;99.90
46508;DHT22;32223;53.654;10.014;2023-04-24T04:48:39;10.20;99.90
46508;DHT22;32223;53.654;10.014;2023-04-24T04:51:05;10.20;99.90
46508;DHT22;32223;53.654;10.014;2023-04-24T04:53:31;10.20;99.90
46508;DHT22;32223;53.654;10.014;2023-04-24T04:55:57;10.30;99.90
46508;DHT22;32223;53.654;10.014;2023-04-24T04:58:23;10.30;99.90
46508;DHT22;32223;53.654;10.014;2023-04-24T05:00:48;10.50;99.90
46508;DHT22;32223;53.654;10.014;2023-04-24T05:03:14;10.60;99.90
46508;DHT22;32223;53.654;10.014;2023-04-24T05:05:40;10.80;99.90
46508;DHT22;32223;53.654;10.014;2023-04-24T05:08:07;10.80;99.90
46508;DHT22;32223;53.654;10.014;2023-04-24T05:10:33;10.90;99.90
46508;DHT22;32223;53.654;10.014;2023-04-24T05:12:59;10.90;99.90
46508;DHT22;32223;53.654;10.014;2023-04-24T05:15:25;10.90;99.90
46508;DHT22;32223;53.654;10.014;2023-04-24T05:17:51;10.90;99.90
46508;DHT22;32223;53.654;10.014;2023-04-24T05:20:16;10.90;99.90
46508;DHT22;32223;53.654;10.014;2023-04-24T05:22:42;10.90;99.90
46508;DHT22;32223;53.654;10.014;2023-04-24T05:25:08;10.90;99.90
46508;DHT22;32223;53.654;10.014;2023-04-24T05:27:34;10.80;99.90
46508;DHT22;32223;53.654;10.014;2023-04-24T05:30:00;10.90;99.90
46508;DHT22;32223;53.654;10.014;2023-04-24T05:32:25;10.90;99.90
46508;DHT22;32223;53.654;10.014;2023-04-24T05:34:52;11.00;99.90
46508;DHT22;32223;53.654;10.014;2023-04-24T05:37:17;11.00;99.90
46508;DHT22;32223;53.654;10.014;2023-04-24T05:39:43;11.00;99.90
46508;DHT22;32223;53.654;10.014;2023-04-24T05:42:09;11.10;99.90
46508;DHT22;32223;53.654;10.014;2023-04-24T05:44:34;11.20;99.90
46508;DHT22;32223;53.654;10.014;2023-04-24T05:47:00;11.20;99.90
46508;DHT22;32223;53.654;10.014;2023-04-24T05:49:26;11.30;99.90
46508;DHT22;32223;53.654;10.014;2023-04-24T05:51:51;11.30;99.90
46508;DHT22;32223;53.654;10.014;2023-04-24T05:54:17;11.30;99.90
46508;DHT22;32223;53.654;10.014;2023-04-24T05:56:43;11.40;99.90
46508;DHT22;32223;53.654;10.014;2023-04-24T05:59:08;11.40;99.90
46508;DHT22;32223;53.654;10.014;2023-04-24T06:01:34;11.40;99.90
46508;DHT22;32223;53.654;10.014;2023-04-24T06:03:59;11.40;99.90
46508;DHT22;32223;53.654;10.014;2023-04-24T06:06:26;11.50;99.90
46508;DHT22;32223;53.654;10.014;2023-04-24T06:08:52;11.50;99.90
46508;DHT22;32223;53.654;10.014;2023-04-24T06:11:18;11.50;99.90
46508;DHT22;32223;53.654;10.014;2023-04-24T06:13:43;11.50;99.90
46508;DHT22;32223;53.654;10.014;2023-04-24T06:16:10;11.50;99.90
46508;DHT22;32223;53.654;10.014;2023-04-24T06:18:35;11.60;99.90
46508;DHT22;32223;53.654;10.014;2023-04-24T06:21:01;11.60;99.90
46508;DHT22;32223;53.654;10.014;2023-04-24T06:23:26;11.70;99.90
46508;DHT22;32223;53.654;10.014;2023-04-24T06:25:52;11.70;99.90
46508;DHT22;32223;53.654;10.014;2023-04-24T06:28:18;11.80;99.90
46508;DHT22;32223;53.654;10.014;2023-04-24T06:30:44;11.90;99.90
46508;DHT22;32223;53.654;10.014;2023-04-24T06:33:09;11.90;99.90
46508;DHT22;32223;53.654;10.014;2023-04-24T06:35:36;12.00;99.90
46508;DHT22;32223;53.654;10.014;2023-04-24T06:38:03;12.00;99.90
46508;DHT22;32223;53.654;10.014;2023-04-24T06:40:28;12.10;99.90
46508;DHT22;32223;53.654;10.014;2023-04-24T06:42:54;12.20;99.90
46508;DHT22;32223;53.654;10.014;2023-04-24T06:45:20;12.20;99.90
46508;DHT22;32223;53.654;10.014;2023-04-24T06:47:46;12.30;99.90
46508;DHT22;32223;53.654;10.014;2023-04-24T06:50:11;12.20;99.90
46508;DHT22;32223;53.654;10.014;2023-04-24T06:52:37;12.20;99.90
46508;DHT22;32223;53.654;10.014;2023-04-24T06:55:03;12.30;99.90
46508;DHT22;32223;53.654;10.014;2023-04-24T06:57:29;12.40;99.90
46508;DHT22;32223;53.654;10.014;2023-04-24T06:59:55;12.50;99.90
46508;DHT22;32223;53.654;10.014;2023-04-24T07:02:21;12.50;99.90
46508;DHT22;32223;53.654;10.014;2023-04-24T07:04:47;12.70;99.90
46508;DHT22;32223;53.654;10.014;2023-04-24T07:07:13;12.90;99.90
46508;DHT22;32223;53.654;10.014;2023-04-24T07:09:40;12.90;99.90
46508;DHT22;32223;53.654;10.014;2023-04-24T07:12:09;12.90;99.90
46508;DHT22;32223;53.654;10.014;2023-04-24T07:14:39;12.80;99.90
46508;DHT22;32223;53.654;10.014;2023-04-24T07:17:05;12.80;99.90
46508;DHT22;32223;53.654;10.014;2023-04-24T07:19:33;12.80;99.90
46508;DHT22;32223;53.654;10.014;2023-04-24T07:21:58;13.00;99.90
46508;DHT22;32223;53.654;10.014;2023-04-24T07:24:25;13.00;99.90
46508;DHT22;32223;53.654;10.014;2023-04-24T07:26:51;13.00;99.90
46508;DHT22;32223;53.654;10.014;2023-04-24T07:29:18;13.10;99.90
46508;DHT22;32223;53.654;10.014;2023-04-24T07:31:43;13.10;99.90
46508;DHT22;32223;53.654;10.014;2023-04-24T07:34:09;13.00;99.90
46508;DHT22;32223;53.654;10.014;2023-04-24T07:36:35;12.90;99.90
46508;DHT22;32223;53.654;10.014;2023-04-24T07:39:01;12.80;99.90
46508;DHT22;32223;53.654;10.014;2023-04-24T07:41:26;12.70;99.90
46508;DHT22;32223;53.654;10.014;2023-04-24T07:43:53;12.80;99.90
46508;DHT22;32223;53.654;10.014;2023-04-24T07:46:19;12.80;99.90
46508;DHT22;32223;53.654;10.014;2023-04-24T07:48:45;12.90;99.90
46508;DHT22;32223;53.654;10.014;2023-04-24T07:51:14;13.00;99.90
46508;DHT22;32223;53.654;10.014;2023-04-24T07:53:40;13.10;99.90
46508;DHT22;32223;53.654;10.014;2023-04-24T07:56:06;13.20;99.90
46508;DHT22;32223;53.654;10.014;2023-04-24T07:58:31;13.30;99.90
46508;DHT22;32223;53.654;10.014;2023-04-24T08:00:57;13.30;99.90
46508;DHT22;32223;53.654;10.014;2023-04-24T08:03:22;13.20;99.90
46508;DHT22;32223;53.654;10.014;2023-04-24T08:05:49;13.10;99.90
46508;DHT22;32223;53.654;10.014;2023-04-24T08:08:16;13.00;99.90
46508;DHT22;32223;53.654;10.014;2023-04-24T08:10:42;13.00;99.90
46508;DHT22;32223;53.654;10.014;2023-04-24T08:13:08;13.00;99.90
46508;DHT22;32223;53.654;10.014;2023-04-24T08:15:34;12.90;99.90
46508;DHT22;32223;53.654;10.014;2023-04-24T08:17:59;12.80;99.90
46508;DHT22;32223;53.654;10.014;2023-04-24T08:20:25;12.70;99.90
46508;DHT22;32223;53.654;10.014;2023-04-24T08:22:51;12.60;99.90
46508;DHT22;32223;53.654;10.014;2023-04-24T08:25:16;12.70;99.90
46508;DHT22;32223;53.654;10.014;2023-04-24T08:27:43;12.80;99.90
46508;DHT22;32223;53.654;10.014;2023-04-24T08:30:09;13.00;99.90
46508;DHT22;32223;53.654;10.014;2023-04-24T08:32:35;13.10;99.90
46508;DHT22;32223;53.654;10.014;2023-04-24T08:35:01;13.20;99.90
46508;DHT22;32223;53.654;10.014;2023-04-24T08:37:27;13.20;99.90
46508;DHT22;32223;53.654;10.014;2023-04-24T08:39:53;13.20;99.90
46508;DHT22;32223;53.654;10.014;2023-04-24T08:42:19;13.10;99.90
46508;DHT22;32223;53.654;10.014;2023-04-24T08:44:46;13.10;99.90
46508;DHT22;32223;53.654;10.014;2023-04-24T08:47:13;13.10;99.90
46508;DHT22;32223;53.654;10.014;2023-04-24T08:49:40;13.00;99.90
46508;DHT22;32223;53.654;10.014;2023-04-24T08:52:06;13.00;99.90
46508;DHT22;32223;53.654;10.014;2023-04-24T08:54:33;12.90;99.90
46508;DHT22;32223;53.654;10.014;2023-04-24T08:57:01;12.80;99.90
46508;DHT22;32223;53.654;10.014;2023-04-24T08:59:27;12.70;99.90
46508;DHT22;32223;53.654;10.014;2023-04-24T09:01:55;12.70;99.90
46508;DHT22;32223;53.654;10.014;2023-04-24T09:04:22;12.80;99.90
46508;DHT22;32223;53.654;10.014;2023-04-24T09:06:57;12.90;99.90
46508;DHT22;32223;53.654;10.014;2023-04-24T09:09:24;13.00;99.90
46508;DHT22;32223;53.654;10.014;2023-04-24T09:11:50;13.20;99.90
46508;DHT22;32223;53.654;10.014;2023-04-24T09:14:17;13.20;99.90
46508;DHT22;32223;53.654;10.014;2023-04-24T09:16:43;13.30;99.90
46508;DHT22;32223;53.654;10.014;2023-04-24T09:19:08;13.40;99.90
46508;DHT22;32223;53.654;10.014;2023-04-24T09:21:35;13.50;99.90
46508;DHT22;32223;53.654;10.014;2023-04-24T09:24:05;13.60;99.90
46508;DHT22;32223;53.654;10.014;2023-04-24T09:26:35;13.60;99.90
46508;DHT22;32223;53.654;10.014;2023-04-24T09:29:01;13.60;99.90
46508;DHT22;32223;53.654;10.014;2023-04-24T09:31:29;13.60;99.90
46508;DHT22;32223;53.654;10.014;2023-04-24T09:39:03;13.50;99.90
46508;DHT22;32223;53.654;10.014;2023-04-24T09:41:32;13.40;99.90
46508;DHT22;32223;53.654;10.014;2023-04-24T09:44:12;13.40;99.90
46508;DHT22;32223;53.654;10.014;2023-04-24T09:46:38;13.40;99.90
46508;DHT22;32223;53.654;10.014;2023-04-24T09:49:14;13.40;99.90
46508;DHT22;32223;53.654;10.014;2023-04-24T09:51:42;13.40;99.90
46508;DHT22;32223;53.654;10.014;2023-04-24T09:54:19;13.50;99.90
46508;DHT22;32223;53.654;10.014;2023-04-24T09:56:49;13.40;99.90
46508;DHT22;32223;53.654;10.014;2023-04-24T09:59:16;13.40;99.90
46508;DHT22;32223;53.654;10.014;2023-04-24T10:01:43;13.30;99.90
46508;DHT22;32223;53.654;10.014;2023-04-24T10:04:30;13.10;99.90
46508;DHT22;32223;53.654;10.014;2023-04-24T10:06:56;13.00;99.90
46508;DHT22;32223;53.654;10.014;2023-04-24T10:09:26;13.00;99.90
46508;DHT22;32223;53.654;10.014;2023-04-24T10:11:53;13.00;99.90
46508;DHT22;32223;53.654;10.014;2023-04-24T10:14:23;13.10;99.90
46508;DHT22;32223;53.654;10.014;2023-04-24T10:16:50;13.10;99.90
46508;DHT22;32223;53.654;10.014;2023-04-24T10:19:18;12.90;99.90
46508;DHT22;32223;53.654;10.014;2023-04-24T10:21:46;12.90;99.90
46508;DHT22;32223;53.654;10.014;2023-04-24T10:24:18;12.90;99.90
46508;DHT22;32223;53.654;10.014;2023-04-24T10:26:46;12.90;99.90
46508;DHT22;32223;53.654;10.014;2023-04-24T10:29:16;12.80;99.90
46508;DHT22;32223;53.654;10.014;2023-04-24T10:31:42;12.80;99.90
46508;DHT22;32223;53.654;10.014;2023-04-24T10:34:11;12.90;99.90
46508;DHT22;32223;53.654;10.014;2023-04-24T10:36:40;13.10;99.90
46508;DHT22;32223;53.654;10.014;2023-04-24T10:39:09;13.10;99.90
46508;DHT22;32223;53.654;10.014;2023-04-24T10:41:37;13.30;99.90
46508;DHT22;32223;53.654;10.014;2023-04-24T10:44:11;13.30;99.90
46508;DHT22;32223;53.654;10.014;2023-04-24T10:46:38;13.50;99.90
46508;DHT22;32223;53.654;10.014;2023-04-24T10:49:04;13.60;99.90
46508;DHT22;32223;53.654;10.014;2023-04-24T10:59:47;13.30;99.90
46508;DHT22;32223;53.654;10.014;2023-04-24T11:02:17;13.40;99.90
46508;DHT22;32223;53.654;10.014;2023-04-24T11:04:44;13.40;99.90
46508;DHT22;32223;53.654;10.014;2023-04-24T11:07:10;13.40;99.90
46508;DHT22;32223;53.654;10.014;2023-04-24T11:09:36;13.40;99.90
46508;DHT22;32223;53.654;10.014;2023-04-24T11:12:09;13.40;99.90
46508;DHT22;32223;53.654;10.014;2023-04-24T11:14:59;13.50;99.90
46508;DHT22;32223;53.654;10.014;2023-04-24T11:17:29;13.70;99.90
46508;DHT22;32223;53.654;10.014;2023-04-24T11:20:01;14.00;99.90
46508;DHT22;32223;53.654;10.014;2023-04-24T11:22:29;14.20;99.90
46508;DHT22;32223;53.654;10.014;2023-04-24T11:24:59;14.20;99.90
46508;DHT22;32223;53.654;10.014;2023-04-24T11:27:39;14.20;99.90
46508;DHT22;32223;53.654;10.014;2023-04-24T11:30:05;14.10;99.90
46508;DHT22;32223;53.654;10.014;2023-04-24T11:35:05;14.40;99.90
46508;DHT22;32223;53.654;10.014;2023-04-24T11:40:02;14.40;99.90
46508;DHT22;32223;53.654;10.014;2023-04-24T11:42:36;14.40;99.90
46508;DHT22;32223;53.654;10.014;2023-04-24T11:45:07;14.30;99.90
46508;DHT22;32223;53.654;10.014;2023-04-24T11:47:33;14.20;99.90
46508;DHT22;32223;53.654;10.014;2023-04-24T11:50:00;14.20;99.90
46508;DHT22;32223;53.654;10.014;2023-04-24T11:52:29;14.40;99.90
46508;DHT22;32223;53.654;10.014;2023-04-24T11:54:56;14.50;99.90
46508;DHT22;32223;53.654;10.014;2023-04-24T11:57:24;14.50;99.90
46508;DHT22;32223;53.654;10.014;2023-04-24T11:59:51;14.40;99.90
46508;DHT22;32223;53.654;10.014;2023-04-24T12:02:24;14.40;99.90
46508;DHT22;32223;53.654;10.014;2023-04-24T12:04:53;14.20;99.90
46508;DHT22;32223;53.654;10.014;2023-04-24T12:07:20;13.90;99.90
46508;DHT22;32223;53.654;10.014;2023-04-24T12:09:49;13.80;99.90
46508;DHT22;32223;53.654;10.014;2023-04-24T12:12:19;13.70;99.90
46508;DHT22;32223;53.654;10.014;2023-04-24T12:14:49;13.70;99.90
46508;DHT22;32223;53.654;10.014;2023-04-24T12:17:16;13.70;99.90
46508;DHT22;32223;53.654;10.014;2023-04-24T12:19:46;13.70;99.90
46508;DHT22;32223;53.654;10.014;2023-04-24T12:22:12;13.70;99.90
46508;DHT22;32223;53.654;10.014;2023-04-24T12:24:59;13.80;99.90
46508;DHT22;32223;53.654;10.014;2023-04-24T12:27:28;14.00;99.90
46508;DHT22;32223;53.654;10.014;2023-04-24T12:29:57;14.20;99.90
46508;DHT22;32223;53.654;10.014;2023-04-24T12:32:24;14.10;99.90
46508;DHT22;32223;53.654;10.014;2023-04-24T12:34:53;14.10;99.90
46508;DHT22;32223;53.654;10.014;2023-04-24T12:37:20;13.90;99.90
46508;DHT22;32223;53.654;10.014;2023-04-24T12:40:07;13.70;99.90
46508;DHT22;32223;53.654;10.014;2023-04-24T12:42:34;13.60;99.90
46508;DHT22;32223;53.654;10.014;2023-04-24T12:45:05;13.40;99.90
46508;DHT22;32223;53.654;10.014;2023-04-24T12:47:33;13.20;99.90
46508;DHT22;32223;53.654;10.014;2023-04-24T12:49:59;13.10;99.90
46508;DHT22;32223;53.654;10.014;2023-04-24T12:52:26;13.10;99.90
46508;DHT22;32223;53.654;10.014;2023-04-24T12:54:56;13.00;99.90
46508;DHT22;32223;53.654;10.014;2023-04-24T12:57:27;13.00;99.90
46508;DHT22;32223;53.654;10.014;2023-04-24T12:59:57;13.00;99.90
46508;DHT22;32223;53.654;10.014;2023-04-24T13:02:25;12.90;99.90
46508;DHT22;32223;53.654;10.014;2023-04-24T13:04:52;12.80;99.90
46508;DHT22;32223;53.654;10.014;2023-04-24T13:07:17;12.60;99.90
46508;DHT22;32223;53.654;10.014;2023-04-24T13:09:44;12.60;99.90
46508;DHT22;32223;53.654;10.014;2023-04-24T13:12:11;12.60;99.90
46508;DHT22;32223;53.654;10.014;2023-04-24T13:14:37;12.50;99.90
46508;DHT22;32223;53.654;10.014;2023-04-24T13:17:03;12.40;99.90
46508;DHT22;32223;53.654;10.014;2023-04-24T13:19:29;12.30;99.90
46508;DHT22;32223;53.654;10.014;2023-04-24T13:22:00;12.30;99.90
46508;DHT22;32223;53.654;10.014;2023-04-24T13:24:26;12.30;99.90
46508;DHT22;32223;53.654;10.014;2023-04-24T13:26:55;12.40;99.90
46508;DHT22;32223;53.654;10.014;2023-04-24T13:29:22;12.30;99.90
46508;DHT22;32223;53.654;10.014;2023-04-24T13:31:50;12.40;99.90
46508;DHT22;32223;53.654;10.014;2023-04-24T13:34:17;12.30;99.90
46508;DHT22;32223;53.654;10.014;2023-04-24T13:36:42;12.40;99.90
46508;DHT22;32223;53.654;10.014;2023-04-24T13:39:08;12.50;99.90
46508;DHT22;32223;53.654;10.014;2023-04-24T13:41:34;12.50;99.90
46508;DHT22;32223;53.654;10.014;2023-04-24T13:44:00;12.50;99.90
46508;DHT22;32223;53.654;10.014;2023-04-24T13:46:26;12.40;99.90
46508;DHT22;32223;53.654;10.014;2023-04-24T13:48:52;12.30;99.90
46508;DHT22;32223;53.654;10.014;2023-04-24T13:51:18;12.30;99.90
46508;DHT22;32223;53.654;10.014;2023-04-24T13:53:43;12.20;99.90
46508;DHT22;32223;53.654;10.014;2023-04-24T13:56:09;12.20;99.90
46508;DHT22;32223;53.654;10.014;2023-04-24T13:58:35;12.20;99.90
46508;DHT22;32223;53.654;10.014;2023-04-24T14:01:04;12.10;99.90
46508;DHT22;32223;53.654;10.014;2023-04-24T14:03:29;12.10;99.90
46508;DHT22;32223;53.654;10.014;2023-04-24T14:05:55;12.20;99.90
46508;DHT22;32223;53.654;10.014;2023-04-24T14:08:20;12.10;99.90
46508;DHT22;32223;53.654;10.014;2023-04-24T14:10:46;12.00;99.90
46508;DHT22;32223;53.654;10.014;2023-04-24T14:13:12;12.20;99.90
46508;DHT22;32223;53.654;10.014;2023-04-24T14:15:38;12.10;99.90
46508;DHT22;32223;53.654;10.014;2023-04-24T14:18:03;12.10;99.90
46508;DHT22;32223;53.654;10.014;2023-04-24T14:20:29;12.10;99.90
46508;DHT22;32223;53.654;10.014;2023-04-24T14:22:55;12.10;99.90
46508;DHT22;32223;53.654;10.014;2023-04-24T14:25:20;12.20;99.90
46508;DHT22;32223;53.654;10.014;2023-04-24T14:27:47;12.20;99.90
46508;DHT22;32223;53.654;10.014;2023-04-24T14:30:13;12.20;99.90
46508;DHT22;32223;53.654;10.014;2023-04-24T14:32:40;12.10;99.90
46508;DHT22;32223;53.654;10.014;2023-04-24T14:35:06;12.10;99.90
46508;DHT22;32223;53.654;10.014;2023-04-24T14:37:32;12.00;99.90
46508;DHT22;32223;53.654;10.014;2023-04-24T14:39:58;11.80;99.90
46508;DHT22;32223;53.654;10.014;2023-04-24T14:42:23;11.60;99.90
46508;DHT22;32223;53.654;10.014;2023-04-24T14:44:49;11.30;99.90
46508;DHT22;32223;53.654;10.014;2023-04-24T14:47:16;11.00;99.90
46508;DHT22;32223;53.654;10.014;2023-04-24T14:49:43;10.80;99.90
46508;DHT22;32223;53.654;10.014;2023-04-24T14:52:09;10.60;99.90
46508;DHT22;32223;53.654;10.014;2023-04-24T14:54:35;10.50;99.90
46508;DHT22;32223;53.654;10.014;2023-04-24T14:57:01;10.40;99.90
46508;DHT22;32223;53.654;10.014;2023-04-24T14:59:27;10.40;99.90
46508;DHT22;32223;53.654;10.014;2023-04-24T15:01:54;10.30;99.90
46508;DHT22;32223;53.654;10.014;2023-04-24T15:04:23;10.30;99.90
46508;DHT22;32223;53.654;10.014;2023-04-24T15:06:53;10.20;99.90
46508;DHT22;32223;53.654;10.014;2023-04-24T15:09:20;10.20;99.90
46508;DHT22;32223;53.654;10.014;2023-04-24T15:11:47;10.20;99.90
46508;DHT22;32223;53.654;10.014;2023-04-24T15:14:12;10.10;99.90
46508;DHT22;32223;53.654;10.014;2023-04-24T15:16:38;10.10;99.90
46508;DHT22;32223;53.654;10.014;2023-04-24T15:19:04;10.10;99.90
46508;DHT22;32223;53.654;10.014;2023-04-24T15:21:29;10.00;99.90
46508;DHT22;32223;53.654;10.014;2023-04-24T15:23:56;10.00;99.90
46508;DHT22;32223;53.654;10.014;2023-04-24T15:26:23;10.00;99.90
46508;DHT22;32223;53.654;10.014;2023-04-24T15:28:49;10.00;99.90
46508;DHT22;32223;53.654;10.014;2023-04-24T15:31:14;10.00;99.90